New Meadows, Idaho
Current Conditions -  °F | °C
As of 10:51 PM on Monday 20 Oct 2014 (Local Time) from KMYL Reporting Station
Clear Clear  
Wind Chill: 49°   Ceiling: Unl
Heat Index: 49°   Visibility: 10mi
Dew Point: 34°   Wind: 0mph
Humidity: 56%   Direction: NA
Pressure: 29.78"   Gusts: NA
Location:  44.97°N, 116.28°W
Report Text: KMYL 210451Z AUTO 00000KT 10SM CLR 09/01 A2978 RMK AO2 SLP065 T00940011
Loading
Personal Weather Stations






























Interactive Weather Map
Tropical Storm Tracking
New forecast layout! Learn more

10-Day Weather Forecast

Advertisements
Track Severe Weather on mobile